Time;durP1;ratioP1;P1;durP2;ratioP2;P2;SDS_P1;SDS_P2;PMS_P1;PMS_P2;Temp;Humidity;BMP_temperature;BMP_pressure;BME280_temperature;BME280_humidity;BME280_pressure;Samples;Min_cycle;Max_cycle;Signal;HPM_P1;HPM_P2
2021/11/13 00:02:17;;;;;;;44.67;29.82;;;;;;;3.58;84.08;96715.27;1715538;82;20986;-79
2021/11/13 00:04:43;;;;;;;43.10;28.85;;;;;;;3.58;83.99;96710.61;1740815;82;21066;-80
2021/11/13 00:07:08;;;;;;;48.73;30.17;;;;;;;3.57;83.67;96709.77;1769433;80;20975;-80
2021/11/13 00:09:34;;;;;;;48.87;29.75;;;;;;;3.56;83.67;96704.76;1769716;80;20953;-80
2021/11/13 00:12:01;;;;;;;55.40;32.25;;;;;;;3.56;83.92;96709.42;1740379;82;21050;-79
2021/11/13 00:14:29;;;;;;;58.30;33.58;;;;;;;3.46;83.62;96706.03;1744968;81;21327;-79
2021/11/13 00:16:55;;;;;;;58.13;35.28;;;;;;;3.38;83.80;96705.03;1747578;81;21085;-79
2021/11/13 00:19:21;;;;;;;54.65;34.50;;;;;;;3.35;84.04;96698.41;1742943;81;20955;-79
2021/11/13 00:21:47;;;;;;;49.20;31.17;;;;;;;3.34;84.14;96699.34;1749963;81;20968;-79
2021/11/13 00:24:12;;;;;;;50.55;33.08;;;;;;;3.33;83.99;96690.02;1742523;81;21061;-79
2021/11/13 00:26:39;;;;;;;47.50;29.87;;;;;;;3.33;83.97;96690.02;1759685;81;21027;-79
2021/11/13 00:29:05;;;;;;;50.90;30.30;;;;;;;3.30;83.82;96691.09;1741982;81;21376;-80
2021/11/13 00:31:31;;;;;;;49.18;31.33;;;;;;;3.29;83.78;96687.38;1752684;81;20991;-80
2021/11/13 00:33:57;;;;;;;57.03;32.10;;;;;;;3.24;83.80;96686.92;1742548;81;21019;-80
2021/11/13 00:36:23;;;;;;;51.30;30.85;;;;;;;3.21;83.96;96689.76;1763608;80;20993;-80
2021/11/13 00:38:49;;;;;;;48.17;32.33;;;;;;;3.20;83.96;96690.23;1746433;81;20957;-79
2021/11/13 00:41:14;;;;;;;46.23;29.07;;;;;;;3.17;83.81;96690.96;1753499;81;20971;-79
2021/11/13 00:43:40;;;;;;;60.35;38.00;;;;;;;3.17;83.67;96694.81;1769463;81;21297;-79
2021/11/13 00:46:06;;;;;;;50.55;31.85;;;;;;;3.15;83.65;96689.00;1765522;80;21019;-79
2021/11/13 00:48:31;;;;;;;51.00;34.25;;;;;;;3.11;83.87;96689.73;1763938;80;20970;-80
2021/11/13 00:50:57;;;;;;;47.27;31.33;;;;;;;3.09;83.88;96683.91;1719370;81;20984;-80
2021/11/13 00:53:23;;;;;;;52.85;33.53;;;;;;;3.03;83.93;96684.41;1744424;81;20932;-80
2021/11/13 00:55:48;;;;;;;48.45;31.27;;;;;;;3.00;84.00;96676.97;1775828;80;20912;-79
2021/11/13 00:58:14;;;;;;;51.58;32.83;;;;;;;3.03;84.17;96686.97;1747768;81;21329;-79
2021/11/13 01:00:40;;;;;;;49.10;31.30;;;;;;;3.07;84.20;96681.91;1750976;81;21015;-80
2021/11/13 01:03:07;;;;;;;47.83;32.15;;;;;;;3.12;84.19;96678.98;1744479;81;21006;-79
2021/11/13 01:05:34;;;;;;;51.37;32.60;;;;;;;3.10;84.05;96677.84;1748275;81;21030;-79
2021/11/13 01:08:00;;;;;;;50.23;32.38;;;;;;;3.05;83.94;96673.53;1713344;82;20984;-79
2021/11/13 01:10:26;;;;;;;49.63;31.35;;;;;;;3.03;83.95;96666.44;1752946;81;21382;-79
2021/11/13 01:12:52;;;;;;;43.02;30.45;;;;;;;2.97;83.48;96660.54;1704847;82;20967;-80
2021/11/13 01:15:19;;;;;;;47.27;31.73;;;;;;;2.93;83.57;96663.84;1749779;80;20980;-79
2021/11/13 01:17:44;;;;;;;46.15;31.33;;;;;;;2.88;83.24;96654.87;1767228;81;20993;-79
2021/11/13 01:20:12;;;;;;;40.00;27.95;;;;;;;2.82;82.89;96647.70;1766885;80;21662;-80
2021/11/13 01:22:39;;;;;;;41.45;29.20;;;;;;;2.75;83.04;96644.80;1747594;81;21006;-80
2021/11/13 01:25:06;;;;;;;42.95;29.37;;;;;;;2.75;83.12;96649.13;1755805;81;20990;-79
2021/11/13 01:27:31;;;;;;;44.80;29.70;;;;;;;2.69;82.99;96647.41;1747079;81;21109;-78
2021/11/13 01:29:57;;;;;;;47.15;31.82;;;;;;;2.67;82.94;96647.20;1762116;81;21014;-79
2021/11/13 01:32:23;;;;;;;50.90;32.55;;;;;;;2.60;83.00;96644.34;1759838;81;21029;-80
2021/11/13 01:34:49;;;;;;;50.03;31.95;;;;;;;2.55;83.15;96648.20;1770337;80;21057;-79
2021/11/13 01:37:14;;;;;;;48.65;33.02;;;;;;;2.51;83.13;96642.98;1753433;81;21108;-80
2021/11/13 01:39:40;;;;;;;45.23;30.50;;;;;;;2.52;83.18;96645.42;1764577;81;21049;-79
2021/11/13 01:42:06;;;;;;;45.48;31.05;;;;;;;2.54;83.19;96638.41;1758702;81;21078;-79
2021/11/13 01:44:32;;;;;;;49.63;31.97;;;;;;;2.52;83.01;96631.78;1742980;81;21060;-79
2021/11/13 01:46:58;;;;;;;41.98;29.77;;;;;;;2.49;83.11;96630.29;1756777;80;21066;-79
2021/11/13 01:49:24;;;;;;;46.83;30.37;;;;;;;2.46;83.21;96631.02;1745543;81;21672;-79
2021/11/13 01:51:49;;;;;;;44.13;29.30;;;;;;;2.41;83.01;96627.52;1748768;81;20979;-79
2021/11/13 01:54:17;;;;;;;42.03;28.75;;;;;;;2.38;83.06;96631.16;1742331;81;21397;-79
2021/11/13 01:56:42;;;;;;;42.58;27.62;;;;;;;2.39;83.18;96628.12;1748913;80;21014;-79
2021/11/13 01:59:09;;;;;;;41.10;28.15;;;;;;;2.40;83.01;96622.05;1761260;81;20950;-80
2021/11/13 02:01:35;;;;;;;42.45;28.98;;;;;;;2.37;83.07;96624.87;1758814;81;21373;-80
2021/11/13 02:04:01;;;;;;;39.80;28.77;;;;;;;2.36;83.20;96625.34;1759197;81;21040;-80
2021/11/13 02:06:27;;;;;;;44.08;29.50;;;;;;;2.34;83.19;96620.81;1754491;81;20979;-80
2021/11/13 02:08:54;;;;;;;35.00;25.62;;;;;;;2.30;83.08;96620.72;1750649;81;20979;-79
2021/11/13 02:11:24;;;;;;;36.13;25.17;;;;;;;2.26;82.98;96618.04;1763850;81;20991;-79
2021/11/13 02:13:50;;;;;;;36.95;24.40;;;;;;;2.20;82.73;96610.86;1769578;81;21002;-80
2021/11/13 02:16:16;;;;;;;36.50;26.07;;;;;;;2.12;82.47;96612.43;1771735;80;21039;-79
2021/11/13 02:18:43;;;;;;;40.48;29.98;;;;;;;2.08;82.61;96613.94;1735819;81;20999;-79
2021/11/13 02:21:09;;;;;;;42.67;31.20;;;;;;;2.08;82.71;96610.55;1751735;80;21043;-80
2021/11/13 02:23:35;;;;;;;40.52;29.27;;;;;;;2.03;82.68;96604.53;1758599;81;21038;-80
2021/11/13 02:26:01;;;;;;;43.70;30.72;;;;;;;2.04;82.91;96608.72;1754374;81;21374;-80
2021/11/13 02:28:27;;;;;;;42.80;29.27;;;;;;;2.06;83.10;96608.59;1760667;81;20982;-79
2021/11/13 02:30:55;;;;;;;43.40;31.33;;;;;;;2.04;83.11;96606.16;1757041;81;20967;-80
2021/11/13 02:33:21;;;;;;;42.15;29.70;;;;;;;2.03;83.11;96605.00;1754209;81;20971;-79
2021/11/13 02:35:47;;;;;;;37.33;27.42;;;;;;;2.00;83.14;96598.38;1746716;80;20986;-79
2021/11/13 02:38:19;;;;;;;42.95;28.98;;;;;;;2.01;83.10;96594.87;1755525;81;20983;-80
2021/11/13 02:40:54;;;;;;;39.58;30.08;;;;;;;1.99;82.88;96589.53;1768132;81;20967;-80
2021/11/13 02:43:19;;;;;;;43.05;29.60;;;;;;;1.97;82.99;96597.34;1783949;80;20995;-80
2021/11/13 02:45:45;;;;;;;40.63;29.55;;;;;;;1.95;83.06;96604.34;1782529;80;20955;-79
2021/11/13 02:48:11;;;;;;;45.12;30.97;;;;;;;1.95;83.14;96599.22;1761177;81;21003;-79
2021/11/13 02:50:37;;;;;;;43.65;29.15;;;;;;;1.94;83.11;96595.47;1748565;81;21374;-79
2021/11/13 02:53:06;;;;;;;40.75;29.85;;;;;;;1.88;82.83;96595.50;1775852;81;20973;-80
2021/11/13 02:55:31;;;;;;;38.20;28.57;;;;;;;1.85;82.54;96593.66;1767181;80;21030;-79
2021/11/13 02:57:57;;;;;;;38.02;27.60;;;;;;;1.80;82.38;96584.59;1763848;81;21370;-80
2021/11/13 03:00:26;;;;;;;36.38;26.85;;;;;;;1.75;82.44;96584.13;1766419;81;20962;-79
2021/11/13 03:02:52;;;;;;;30.55;22.20;;;;;;;1.70;82.53;96582.41;1760995;81;21026;-80
2021/11/13 03:05:33;;;;;;;30.00;23.10;;;;;;;1.69;82.85;96582.07;1756446;81;20943;-79
2021/11/13 03:08:04;;;;;;;27.52;20.62;;;;;;;1.67;83.01;96581.38;1760709;81;21058;-79
2021/11/13 03:10:34;;;;;;;20.50;15.68;;;;;;;1.66;83.06;96578.95;1756637;81;21051;-79
2021/11/13 03:13:00;;;;;;;22.30;16.32;;;;;;;1.66;83.07;96575.11;1754031;81;20993;-79
2021/11/13 03:15:26;;;;;;;22.17;17.50;;;;;;;1.67;83.02;96567.30;1755547;80;21442;-79
2021/11/13 03:17:54;;;;;;;17.17;13.48;;;;;;;1.69;83.12;96562.86;1733279;82;21100;-79
2021/11/13 03:20:26;;;;;;;11.00;9.08;;;;;;;1.73;83.32;96569.36;1736204;82;21522;-80
2021/11/13 03:22:51;;;;;;;6.17;5.08;;;;;;;1.76;83.65;96570.39;1727084;82;21118;-79
2021/11/13 03:25:22;;;;;;;9.08;6.33;;;;;;;1.79;83.92;96566.79;1711839;82;21048;-79
2021/11/13 03:27:53;;;;;;;6.08;5.47;;;;;;;1.83;84.20;96568.63;1738489;82;20968;-79
2021/11/13 03:30:21;;;;;;;5.10;4.30;;;;;;;1.88;84.24;96562.66;1728513;82;21363;-79
2021/11/13 03:32:47;;;;;;;5.92;4.87;;;;;;;1.97;84.47;96563.22;1726818;82;21036;-79
2021/11/13 03:35:15;;;;;;;9.63;8.00;;;;;;;2.04;84.17;96569.45;1741081;82;21366;-79
2021/11/13 03:37:41;;;;;;;13.13;10.63;;;;;;;2.08;84.03;96572.11;1727695;82;20987;-79
2021/11/13 03:40:09;;;;;;;14.85;12.35;;;;;;;2.07;83.88;96569.20;1732356;82;21425;-80
2021/11/13 03:42:35;;;;;;;13.38;11.05;;;;;;;2.06;83.83;96571.42;1726705;82;21027;-79
2021/11/13 03:45:00;;;;;;;8.70;6.50;;;;;;;2.05;83.98;96565.95;1733822;82;21008;-80
2021/11/13 03:47:26;;;;;;;7.92;5.60;;;;;;;2.05;84.21;96568.52;1730626;82;21157;-79
2021/11/13 03:49:53;;;;;;;6.87;5.40;;;;;;;2.07;84.44;96566.64;1730148;82;20995;-80
2021/11/13 03:52:18;;;;;;;6.62;5.37;;;;;;;2.10;84.62;96561.26;1729763;82;21406;-79
2021/11/13 03:54:44;;;;;;;5.97;5.20;;;;;;;2.18;84.95;96555.05;1727357;82;21042;-79
2021/11/13 03:57:10;;;;;;;6.20;4.72;;;;;;;2.27;84.99;96560.69;1730803;82;20979;-79
2021/11/13 03:59:36;;;;;;;7.85;5.67;;;;;;;2.35;85.24;96557.05;1732187;82;21015;-80
2021/11/13 04:02:02;;;;;;;10.65;9.05;;;;;;;2.44;85.21;96558.48;1736378;82;20969;-79
2021/11/13 04:04:27;;;;;;;6.67;5.70;;;;;;;2.44;84.86;96559.77;1738246;82;21020;-80
2021/11/13 04:06:53;;;;;;;6.78;6.08;;;;;;;2.43;84.76;96557.67;1731837;82;20956;-80
2021/11/13 04:09:19;;;;;;;6.37;5.12;;;;;;;2.40;84.83;96554.09;1705066;83;21046;-79
2021/11/13 04:11:45;;;;;;;5.42;4.72;;;;;;;2.41;84.96;96556.52;1724530;83;20996;-79
2021/11/13 04:14:11;;;;;;;4.87;3.77;;;;;;;2.49;85.06;96552.53;1719952;83;21015;-79
2021/11/13 04:16:37;;;;;;;5.20;4.70;;;;;;;2.54;84.98;96555.05;1744642;80;21046;-79
2021/11/13 04:19:02;;;;;;;6.12;5.10;;;;;;;2.58;84.82;96547.42;1754108;81;20974;-80
2021/11/13 04:21:28;;;;;;;7.03;5.00;;;;;;;2.59;84.66;96555.94;1754365;81;21018;-80
2021/11/13 04:23:54;;;;;;;6.58;5.97;;;;;;;2.56;84.67;96556.20;1761746;81;21081;-80
2021/11/13 04:26:20;;;;;;;13.05;9.83;;;;;;;2.55;84.42;96560.98;1764676;81;20966;-79
2021/11/13 04:28:47;;;;;;;15.30;10.95;;;;;;;2.50;84.22;96557.53;1759038;81;20943;-80
2021/11/13 04:31:13;;;;;;;18.02;12.63;;;;;;;2.47;84.04;96565.48;1742316;81;20989;-80
2021/11/13 04:33:39;;;;;;;13.65;10.88;;;;;;;2.47;83.89;96562.11;1745999;81;21214;-79
2021/11/13 04:36:20;;;;;;;13.83;10.63;;;;;;;2.44;83.67;96559.33;1763216;81;20942;-80
2021/11/13 04:38:45;;;;;;;12.58;10.13;;;;;;;2.41;83.62;96556.99;1771495;81;20962;-80
2021/11/13 04:41:10;;;;;;;13.53;10.32;;;;;;;2.36;83.53;96556.10;1761807;80;20977;-79
2021/11/13 04:43:36;;;;;;;17.17;12.47;;;;;;;2.30;83.62;96554.05;1754323;81;21381;-79
2021/11/13 04:46:02;;;;;;;17.82;14.23;;;;;;;2.28;83.95;96552.09;1765123;80;20955;-80
2021/11/13 04:48:28;;;;;;;22.42;15.88;;;;;;;2.29;84.34;96556.75;1763541;81;21003;-80
2021/11/13 04:50:55;;;;;;;22.82;17.82;;;;;;;2.33;84.26;96555.55;1747604;81;21453;-79
2021/11/13 04:53:21;;;;;;;20.30;15.98;;;;;;;2.36;84.37;96557.38;1777394;80;20971;-80
2021/11/13 04:55:47;;;;;;;17.85;14.73;;;;;;;2.40;84.39;96554.91;1772333;80;21366;-80
2021/11/13 04:58:12;;;;;;;17.57;14.85;;;;;;;2.43;84.24;96560.23;1739365;81;21066;-79
2021/11/13 05:00:38;;;;;;;18.48;15.40;;;;;;;2.43;84.25;96560.71;1764219;80;21023;-79
2021/11/13 05:03:04;;;;;;;16.77;14.47;;;;;;;2.41;84.27;96560.38;1775666;80;21011;-80
2021/11/13 05:05:30;;;;;;;18.87;14.73;;;;;;;2.39;84.41;96563.53;1781865;80;20936;-79
2021/11/13 05:07:55;;;;;;;20.97;15.23;;;;;;;2.36;84.36;96552.25;1762021;81;21321;-80
2021/11/13 05:10:21;;;;;;;17.42;13.80;;;;;;;2.35;84.37;96557.05;1778648;80;20963;-80
2021/11/13 05:12:47;;;;;;;18.98;13.88;;;;;;;2.38;84.31;96555.97;1771401;80;21025;-80
2021/11/13 05:15:13;;;;;;;18.95;13.88;;;;;;;2.39;84.13;96554.56;1762995;80;21370;-80
2021/11/13 05:17:39;;;;;;;19.92;13.78;;;;;;;2.38;84.08;96550.84;1718377;83;21032;-80
2021/11/13 05:20:09;;;;;;;20.00;16.17;;;;;;;2.37;84.13;96546.66;1750503;80;20996;-79
2021/11/13 05:22:36;;;;;;;18.02;13.58;;;;;;;2.37;84.25;96544.09;1740340;80;21011;-80
2021/11/13 05:25:04;;;;;;;21.12;18.30;;;;;;;2.36;84.10;96551.44;1752066;80;21019;-80
2021/11/13 05:27:30;;;;;;;28.38;20.77;;;;;;;2.32;83.79;96550.89;1739386;80;21031;-80
2021/11/13 05:29:56;;;;;;;27.45;23.50;;;;;;;2.29;83.37;96556.28;1745163;82;21435;-79
2021/11/13 05:32:21;;;;;;;29.37;23.60;;;;;;;2.25;83.09;96556.16;1744959;82;20998;-79
2021/11/13 05:34:47;;;;;;;34.23;27.05;;;;;;;2.23;83.02;96563.17;1745056;80;21312;-79
2021/11/13 05:37:13;;;;;;;35.50;27.15;;;;;;;2.15;82.76;96566.84;1746180;80;21311;-79
2021/11/13 05:39:38;;;;;;;33.42;26.68;;;;;;;2.06;82.76;96565.83;1720750;82;20948;-80
2021/11/13 05:42:05;;;;;;;36.90;28.90;;;;;;;1.98;82.81;96564.37;1732900;82;20968;-80
2021/11/13 05:44:31;;;;;;;35.23;26.10;;;;;;;1.92;82.79;96567.88;1733279;80;21337;-79
2021/11/13 05:46:56;;;;;;;34.90;25.48;;;;;;;1.88;82.74;96562.66;1737378;81;21038;-80
2021/11/13 05:49:22;;;;;;;30.43;24.45;;;;;;;1.86;82.71;96570.95;1745385;80;21029;-79
2021/11/13 05:51:49;;;;;;;35.17;25.57;;;;;;;1.85;82.71;96581.66;1736199;80;20979;-79
2021/11/13 05:54:14;;;;;;;31.05;25.62;;;;;;;1.80;82.67;96579.95;1743760;80;20959;-80
2021/11/13 05:56:40;;;;;;;32.17;25.40;;;;;;;1.76;82.73;96581.91;1737743;80;20943;-79
2021/11/13 05:59:06;;;;;;;31.65;25.00;;;;;;;1.75;82.67;96583.32;1749483;82;21342;-80
2021/11/13 06:01:33;;;;;;;29.82;23.50;;;;;;;1.72;82.74;96581.01;1750954;80;21362;-79
2021/11/13 06:03:58;;;;;;;28.67;21.87;;;;;;;1.67;82.69;96584.41;1746859;80;20990;-79
2021/11/13 06:06:24;;;;;;;28.98;22.02;;;;;;;1.65;82.69;96584.54;1752774;80;20997;-80
2021/11/13 06:08:50;;;;;;;32.42;23.80;;;;;;;1.65;82.61;96588.84;1739700;80;21566;-79
2021/11/13 06:11:15;;;;;;;30.92;23.67;;;;;;;1.65;82.54;96598.62;1744952;80;20996;-80
2021/11/13 06:13:41;;;;;;;31.73;23.75;;;;;;;1.63;82.76;96603.06;1758321;80;20947;-80
2021/11/13 06:16:08;;;;;;;34.03;24.23;;;;;;;1.63;82.80;96604.34;1765109;80;21020;-80
2021/11/13 06:18:36;;;;;;;40.05;26.37;;;;;;;1.63;82.88;96607.38;1786376;78;21013;-79
2021/11/13 06:21:05;;;;;;;35.38;25.70;;;;;;;1.62;82.98;96605.25;1784593;78;20917;-80
2021/11/13 06:23:33;;;;;;;36.85;26.90;;;;;;;1.61;83.07;96614.33;1787253;80;20972;-80
2021/11/13 06:25:59;;;;;;;38.70;26.35;;;;;;;1.61;83.10;96620.73;1784166;80;20977;-80
2021/11/13 06:28:24;;;;;;;41.53;29.52;;;;;;;1.68;83.33;96615.03;1794486;78;21000;-79
2021/11/13 06:30:50;;;;;;;41.13;30.23;;;;;;;1.75;83.34;96623.03;1782672;79;20961;-80
2021/11/13 06:33:16;;;;;;;45.73;32.90;;;;;;;1.74;83.12;96619.66;1774795;79;21001;-80
2021/11/13 06:35:43;;;;;;;55.48;35.92;;;;;;;1.74;83.20;96616.28;1729469;80;21004;-80
2021/11/13 06:38:08;;;;;;;51.35;36.73;;;;;;;1.72;83.13;96616.41;1747528;80;20969;-80
2021/11/13 06:40:34;;;;;;;55.40;39.13;;;;;;;1.71;83.19;96612.22;1797749;78;20948;-79
2021/11/13 06:43:00;;;;;;;44.00;35.23;;;;;;;1.69;83.20;96610.25;1807921;78;20975;-80
2021/11/13 06:45:26;;;;;;;36.35;28.70;;;;;;;1.75;83.32;96619.19;1793178;78;20973;-80
2021/11/13 06:47:51;;;;;;;41.88;31.17;;;;;;;1.80;83.33;96607.66;1789078;78;20996;-79
2021/11/13 06:50:17;;;;;;;37.33;29.30;;;;;;;1.78;83.32;96623.59;1769534;78;22190;-79
2021/11/13 06:52:43;;;;;;;39.05;29.30;;;;;;;1.81;83.57;96630.25;1770563;81;21022;-79
2021/11/13 06:55:09;;;;;;;41.58;28.80;;;;;;;1.83;83.64;96629.66;1745973;81;21011;-79
2021/11/13 06:57:34;;;;;;;40.48;28.85;;;;;;;1.83;83.45;96630.13;1747415;81;20983;-79
2021/11/13 07:00:00;;;;;;;39.25;27.65;;;;;;;1.82;83.58;96628.50;1769699;81;21365;-79
2021/11/13 07:02:26;;;;;;;33.18;25.37;;;;;;;1.86;83.76;96630.69;1762608;80;20934;-80
2021/11/13 07:04:54;;;;;;;31.33;25.92;;;;;;;1.93;83.71;96625.88;1767878;81;21028;-80
2021/11/13 07:07:20;;;;;;;34.90;25.97;;;;;;;1.96;83.69;96628.22;1762781;81;21445;-79
2021/11/13 07:09:46;;;;;;;42.85;28.60;;;;;;;1.96;83.65;96626.94;1761976;80;21072;-80
2021/11/13 07:12:12;;;;;;;40.30;29.30;;;;;;;1.93;83.45;96637.41;1795510;80;20950;-80
2021/11/13 07:14:37;;;;;;;36.88;27.93;;;;;;;1.85;83.48;96629.53;1795010;80;21038;-80
2021/11/13 07:17:04;;;;;;;37.20;26.82;;;;;;;1.85;84.01;96630.81;1794162;80;21529;-79
2021/11/13 07:19:30;;;;;;;34.20;25.52;;;;;;;1.92;84.32;96627.62;1761465;81;21058;-79
2021/11/13 07:21:55;;;;;;;39.90;28.40;;;;;;;1.96;84.09;96632.06;1761494;81;21357;-79
2021/11/13 07:24:21;;;;;;;34.85;27.02;;;;;;;2.00;84.10;96629.12;1735535;81;21010;-80
2021/11/13 07:26:53;;;;;;;38.13;29.27;;;;;;;2.06;84.06;96622.69;1757510;82;21010;-79
2021/11/13 07:29:23;;;;;;;36.80;28.50;;;;;;;2.11;84.28;96625.68;1758052;82;20971;-79
2021/11/13 07:31:48;;;;;;;38.20;28.12;;;;;;;2.17;84.29;96623.92;1783681;80;20971;-78
2021/11/13 07:34:14;;;;;;;40.83;31.05;;;;;;;2.19;84.31;96618.67;1758934;81;21023;-79
2021/11/13 07:36:40;;;;;;;37.93;27.82;;;;;;;2.23;84.48;96621.33;1758494;80;21422;-78
2021/11/13 07:39:05;;;;;;;37.93;28.00;;;;;;;2.31;84.49;96617.22;1761834;81;21001;-78
2021/11/13 07:41:31;;;;;;;36.23;27.27;;;;;;;2.37;84.40;96613.33;1758527;81;21283;-78
2021/11/13 07:43:57;;;;;;;37.73;29.00;;;;;;;2.44;84.45;96610.63;1774123;81;21376;-78
2021/11/13 07:46:23;;;;;;;37.30;29.12;;;;;;;2.51;84.66;96604.52;1760509;81;21091;-79
2021/11/13 07:48:48;;;;;;;39.20;29.92;;;;;;;2.58;84.96;96610.75;1758352;81;21126;-79
2021/11/13 07:51:14;;;;;;;42.45;30.35;;;;;;;2.63;85.18;96608.64;1758614;81;21034;-79
2021/11/13 07:53:40;;;;;;;39.10;27.73;;;;;;;2.71;85.25;96607.52;1739696;81;21018;-78
2021/11/13 07:56:06;;;;;;;39.42;29.25;;;;;;;2.81;85.39;96604.54;1766001;81;20959;-78
2021/11/13 07:58:32;;;;;;;37.23;29.07;;;;;;;2.92;85.29;96608.75;1735281;81;21434;-78
2021/11/13 08:00:57;;;;;;;45.40;32.73;;;;;;;2.98;85.03;96616.77;1764576;80;20996;-79
2021/11/13 08:03:24;;;;;;;42.27;32.48;;;;;;;3.01;85.03;96619.55;1772865;81;21041;-79
2021/11/13 08:05:49;;;;;;;45.63;32.45;;;;;;;3.08;85.30;96621.92;1776021;81;21352;-79
2021/11/13 08:08:15;;;;;;;40.15;32.40;;;;;;;3.14;85.50;96621.90;1746572;81;21016;-78
2021/11/13 08:10:41;;;;;;;41.23;29.87;;;;;;;3.19;85.23;96624.41;1764005;81;20972;-79
2021/11/13 08:13:14;;;;;;;40.92;31.30;;;;;;;3.26;85.00;96628.57;1775506;81;21023;-79
2021/11/13 08:15:40;;;;;;;44.50;32.73;;;;;;;3.28;84.92;96626.21;1772955;81;20974;-80
2021/11/13 08:18:08;;;;;;;42.70;34.27;;;;;;;3.34;85.04;96625.34;1761968;81;21051;-81
2021/11/13 08:20:35;;;;;;;46.90;34.90;;;;;;;3.37;84.99;96625.88;1773238;81;21441;-80
2021/11/13 08:23:01;;;;;;;50.58;37.17;;;;;;;3.41;85.04;96623.86;1766563;81;20955;-81
2021/11/13 08:25:26;;;;;;;50.25;37.28;;;;;;;3.45;85.17;96627.34;1746885;81;20996;-81
2021/11/13 08:27:53;;;;;;;47.85;35.28;;;;;;;3.51;85.10;96622.13;1774507;81;20935;-81
2021/11/13 08:30:20;;;;;;;46.60;33.90;;;;;;;3.59;85.20;96618.45;1769107;79;20927;-81
2021/11/13 08:32:46;;;;;;;42.15;34.05;;;;;;;3.70;85.41;96618.78;1772789;79;20930;-81
2021/11/13 08:35:14;;;;;;;46.83;35.45;;;;;;;3.78;85.17;96619.75;1772614;79;21295;-81
2021/11/13 08:37:40;;;;;;;47.13;35.68;;;;;;;3.87;85.31;96618.13;1770632;79;21030;-81
2021/11/13 08:40:07;;;;;;;49.08;35.90;;;;;;;3.98;85.54;96618.48;1774560;79;20955;-81
2021/11/13 08:42:32;;;;;;;46.92;34.30;;;;;;;4.02;85.54;96608.25;1773424;81;20981;-81
2021/11/13 08:44:58;;;;;;;45.98;34.08;;;;;;;4.08;85.28;96616.73;1743418;79;20958;-80
2021/11/13 08:47:26;;;;;;;41.33;33.53;;;;;;;4.17;85.31;96615.91;1775377;81;21092;-81
2021/11/13 08:49:53;;;;;;;41.88;33.70;;;;;;;4.31;85.35;96618.53;1775241;79;20950;-81
2021/11/13 08:52:19;;;;;;;49.75;35.35;;;;;;;4.39;85.57;96619.48;1746491;81;21024;-81
2021/11/13 08:54:46;;;;;;;43.63;34.15;;;;;;;4.54;85.77;96617.27;1771657;81;21003;-81
2021/11/13 08:57:12;;;;;;;41.40;34.38;;;;;;;4.63;85.47;96615.64;1773994;80;21055;-81
2021/11/13 08:59:39;;;;;;;45.25;34.65;;;;;;;4.68;85.42;96614.27;1775955;79;21002;-82
2021/11/13 09:02:09;;;;;;;41.70;32.70;;;;;;;4.72;85.38;96615.63;1773700;79;20969;-80
2021/11/13 09:04:37;;;;;;;44.45;36.15;;;;;;;4.84;85.28;96618.83;1773734;79;20975;-79
2021/11/13 09:07:04;;;;;;;40.83;33.95;;;;;;;4.97;84.97;96623.67;1773167;79;21045;-80
2021/11/13 09:09:35;;;;;;;40.85;33.15;;;;;;;5.08;84.94;96618.36;1772324;79;22262;-80
2021/11/13 09:12:02;;;;;;;38.58;31.35;;;;;;;5.15;85.11;96618.11;1771241;79;21017;-79
2021/11/13 09:14:27;;;;;;;36.68;29.25;;;;;;;5.24;84.83;96618.56;1798736;78;20979;-80
2021/11/13 09:16:53;;;;;;;37.05;28.57;;;;;;;5.29;84.42;96616.36;1757113;81;21014;-81
2021/11/13 09:19:20;;;;;;;42.48;32.38;;;;;;;5.36;84.41;96622.55;1770691;80;21086;-80
2021/11/13 09:21:46;;;;;;;36.83;29.10;;;;;;;5.43;84.78;96618.94;1770063;81;21022;-80
2021/11/13 09:24:12;;;;;;;39.78;31.87;;;;;;;5.52;84.63;96618.53;1773676;81;21364;-80
2021/11/13 09:26:37;;;;;;;45.83;32.63;;;;;;;5.64;84.49;96613.05;1766569;81;20965;-81
2021/11/13 09:29:03;;;;;;;39.48;28.70;;;;;;;5.76;84.40;96609.78;1771843;80;21486;-81
2021/11/13 09:31:29;;;;;;;38.78;30.55;;;;;;;5.85;83.35;96605.02;1768670;81;21027;-82
2021/11/13 09:33:55;;;;;;;48.25;34.45;;;;;;;5.89;82.86;96604.27;1759596;81;20975;-82
2021/11/13 09:36:21;;;;;;;40.25;30.27;;;;;;;5.90;82.93;96603.34;1767721;81;21415;-82
2021/11/13 09:38:47;;;;;;;41.20;32.17;;;;;;;5.92;82.24;96600.14;1722034;81;20975;-82
2021/11/13 09:41:15;;;;;;;48.87;35.58;;;;;;;5.93;82.45;96599.98;1767887;81;21006;-83
2021/11/13 09:43:40;;;;;;;46.20;34.03;;;;;;;5.99;82.54;96602.45;1775996;81;20981;-82
2021/11/13 09:46:08;;;;;;;42.85;30.55;;;;;;;6.04;82.72;96597.67;1771409;81;21061;-82
2021/11/13 09:48:34;;;;;;;34.48;25.97;;;;;;;6.06;81.65;96594.95;1774257;81;21078;-82
2021/11/13 09:51:00;;;;;;;29.87;22.15;;;;;;;6.12;81.58;96591.28;1774217;81;21420;-82
2021/11/13 09:53:28;;;;;;;36.63;25.68;;;;;;;6.13;80.49;96589.03;1775036;81;20977;-82
2021/11/13 09:55:54;;;;;;;30.30;23.22;;;;;;;6.17;80.99;96591.63;1774912;81;21062;-82
2021/11/13 09:58:20;;;;;;;30.17;22.37;;;;;;;6.17;80.21;96585.19;1774699;81;21066;-82
2021/11/13 10:00:46;;;;;;;37.93;27.95;;;;;;;6.13;80.18;96577.42;1776072;81;21035;-82
2021/11/13 10:03:18;;;;;;;37.08;26.60;;;;;;;6.08;79.98;96580.94;1776107;81;21079;-82
2021/11/13 10:05:40;;;;;;;37.93;27.98;;;;;;;6.06;78.98;96576.41;1774984;81;21154;-82
2021/11/13 10:08:06;;;;;;;43.87;30.77;;;;;;;6.04;79.07;96577.04;1776100;81;20995;-82
2021/11/13 10:10:40;;;;;;;44.18;31.07;;;;;;;6.01;79.03;96579.89;1748005;81;21082;-81
2021/11/13 10:13:39;;;;;;;41.92;31.68;;;;;;;6.06;79.22;96569.96;1776101;81;20985;-82
2021/11/13 10:16:11;;;;;;;42.08;29.95;;;;;;;6.10;78.98;96562.24;1775557;81;21046;-82
2021/11/13 10:18:46;;;;;;;44.20;31.00;;;;;;;6.19;79.15;96561.36;1773460;81;21428;-82
2021/11/13 10:21:17;;;;;;;46.80;34.33;;;;;;;6.25;79.08;96563.81;1773023;81;21026;-82
2021/11/13 10:23:48;;;;;;;44.15;31.57;;;;;;;6.29;78.91;96558.67;1773089;81;20927;-82
2021/11/13 10:26:21;;;;;;;45.98;32.00;;;;;;;6.38;78.57;96550.52;1772677;81;20978;-82
2021/11/13 10:29:00;;;;;;;41.13;27.13;;;;;;;6.48;78.68;96546.86;1772831;81;21066;-82
2021/11/13 10:31:38;;;;;;;42.65;28.07;;;;;;;6.58;78.29;96544.19;1773132;81;20956;-82
2021/11/13 10:34:11;;;;;;;42.50;28.15;;;;;;;6.63;77.57;96540.66;1773145;81;20982;-82
2021/11/13 10:36:47;;;;;;;46.98;32.15;;;;;;;6.58;77.21;96542.89;1773160;81;20935;-82
2021/11/13 10:39:23;;;;;;;44.15;31.52;;;;;;;6.53;77.71;96542.07;1772704;81;21345;-82
2021/11/13 10:41:56;;;;;;;41.02;28.98;;;;;;;6.61;78.25;96545.16;1773009;81;20998;-82
2021/11/13 10:44:36;;;;;;;40.80;29.77;;;;;;;6.67;76.94;96537.28;1771925;81;20994;-82
2021/11/13 10:47:15;;;;;;;42.00;31.33;;;;;;;6.63;77.41;96531.13;1773251;81;21059;-82
2021/11/13 10:49:41;;;;;;;43.98;30.92;;;;;;;6.53;76.97;96530.94;1773173;81;20983;-82
2021/11/13 10:52:07;;;;;;;50.58;35.65;;;;;;;6.40;77.45;96533.92;1773413;81;21310;-82
2021/11/13 10:54:33;;;;;;;39.88;28.57;;;;;;;6.39;77.78;96524.55;1743169;81;20951;-83
2021/11/13 10:57:03;;;;;;;47.38;34.55;;;;;;;6.42;76.96;96528.12;1773209;81;21346;-82
2021/11/13 10:59:36;;;;;;;44.35;32.25;;;;;;;6.46;77.80;96528.62;1773192;81;20939;-82
2021/11/13 11:02:06;;;;;;;47.93;33.18;;;;;;;6.54;77.62;96525.62;1773207;81;21409;-82
2021/11/13 11:04:35;;;;;;;48.05;32.30;;;;;;;6.50;77.04;96521.70;1773328;81;21357;-83
2021/11/13 11:07:24;;;;;;;54.50;35.92;;;;;;;6.53;77.18;96521.42;1773006;81;21011;-82
2021/11/13 11:10:08;;;;;;;57.17;37.58;;;;;;;6.58;77.42;96521.76;1772826;81;21055;-82
2021/11/13 11:12:33;;;;;;;41.33;26.85;;;;;;;6.65;77.56;96519.36;1768187;81;21042;-83
2021/11/13 11:14:59;;;;;;;44.65;32.25;;;;;;;6.65;75.67;96517.27;1773299;81;20977;-82
2021/11/13 11:17:27;;;;;;;46.88;31.68;;;;;;;6.52;75.28;96515.13;1772708;81;21062;-82
2021/11/13 11:19:55;;;;;;;44.15;30.62;;;;;;;6.46;74.74;96515.23;1771782;81;21065;-82
2021/11/13 11:22:24;;;;;;;42.60;29.98;;;;;;;6.40;75.42;96516.33;1771481;81;21015;-82
2021/11/13 11:24:53;;;;;;;41.77;29.67;;;;;;;6.41;75.76;96515.37;1771518;81;21034;-82
2021/11/13 11:27:38;;;;;;;45.70;29.80;;;;;;;6.41;75.90;96519.24;1785515;80;21001;-82